メインページ
METAR-TAF:

METAR-TAF

空港 :

ハバナ, キューバ

ホセ・マルティ国際空港

緯度: 22-59N, 経度: 082-24W, 海抜: 59m

現時点の気象観測

当レポートは1時間0分前の10:55(UTC)に作成
変向風 2kt
気温 18°C
湿度 94%
気圧 1009 hPa
視程: 9000m

METAR: MUHA 231055Z VRB02KT 9000 NSC 18/17 Q1009

時間: 07:55 (11:55 UTC)

予報

当レポートは55分前の11:00(UTC)に作成
予報は23日の 12時(UTC)から 24日の 12時(UTC)まで有効
変向風 5kt
視程: 9000m
高度3000ftの雲はほとんどない
23日の 13時(UTC)から 23日の 15時(UTC)まで徐々に
南/南西の風 10kt
23日の 18時(UTC)から 23日の 24時(UTC)まで一時的に
視程: 4000m
高度1500ftの雲はほとんどない, 積乱雲.
高度2000ftの千切れ雲あり
激しい雷雨, 雨
24日の 02時(UTC)から 24日の 04時(UTC)まで徐々に
変向風 3kt

TAF: MUHA 231100Z 2312/2412 VRB05KT 9000 FEW030 BECMG 2313/2315 20010KT TEMPO 2318/2324 4000 TSRA FEW015CB BKN020 BECMG 2402/2404 VRB03KT

4,000以上の空港の気象観測と天気予報(METAR報とTAF報)

利用可能な観測所は地図上に黄色い丸と赤い丸で示す。

丸の上にカーソルを重ねると観測所名を参照できる。

次にクリックすると気象観測と天気予報を参照できる。

マップの切り替え:黒色「×」印の緑ボタンをクリックして拡大、「-」印の緑ボタンをクリックして縮小、緑色の三角印をクリックして隣りの地図に切り替え


METAR-TAF: